Time;durP1;ratioP1;P1;durP2;ratioP2;P2;SDS_P1;SDS_P2;PMS_P1;PMS_P2;Temp;Humidity;BMP_temperature;BMP_pressure;BME280_temperature;BME280_humidity;BME280_pressure;Samples;Min_cycle;Max_cycle;Signal;HPM_P1;HPM_P2
2022/10/27 00:02:18;;;;;;;;;;;19.80;75.90;;;;;;4495426;31;19977;-70
2022/10/27 00:04:43;;;;;;;;;;;19.80;75.90;;;;;;4495375;31;19974;-71
2022/10/27 00:07:09;;;;;;;;;;;19.80;75.90;;;;;;4495287;31;20099;-70
2022/10/27 00:09:35;;;;;;;;;;;19.80;75.90;;;;;;4495076;31;20494;-70
2022/10/27 00:12:00;;;;;;;;;;;19.70;75.80;;;;;;4495285;31;20020;-70
2022/10/27 00:14:26;;;;;;;;;;;19.80;75.90;;;;;;4495259;31;19970;-70
2022/10/27 00:16:56;;;;;;;;;;;19.80;76.00;;;;;;4495426;31;19966;-70
2022/10/27 00:19:23;;;;;;;;;;;19.70;76.00;;;;;;4494964;31;19988;-70
2022/10/27 00:21:50;;;;;;;;;;;19.70;75.90;;;;;;4495427;31;20438;-70
2022/10/27 00:24:19;;;;;;;;;;;19.70;75.90;;;;;;4494693;31;19973;-70
2022/10/27 00:26:45;;;;;;;;;;;19.70;76.00;;;;;;4494803;31;19981;-70
2022/10/27 00:29:10;;;;;;;;;;;19.70;75.90;;;;;;4495070;31;20012;-70
2022/10/27 00:31:36;;;;;;;;;;;19.70;75.90;;;;;;4481052;31;20456;-70
2022/10/27 00:34:01;;;;;;;;;;;19.70;75.90;;;;;;4494795;31;20051;-70
2022/10/27 00:36:28;;;;;;;;;;;19.70;75.80;;;;;;4494968;31;20435;-70
2022/10/27 00:38:54;;;;;;;;;;;19.70;75.80;;;;;;4494924;31;19969;-70
2022/10/27 00:41:20;;;;;;;;;;;19.70;75.90;;;;;;4494932;31;19987;-70
2022/10/27 00:43:46;;;;;;;;;;;19.70;75.90;;;;;;4494495;31;19981;-70
2022/10/27 00:46:26;;;;;;;;;;;19.70;75.90;;;;;;4495035;31;20025;-70
2022/10/27 00:48:54;;;;;;;;;;;19.70;75.90;;;;;;4494712;31;19985;-70
2022/10/27 00:51:19;;;;;;;;;;;19.60;75.80;;;;;;4494726;31;19969;-70
2022/10/27 00:53:46;;;;;;;;;;;19.70;75.90;;;;;;4480514;31;19966;-70
2022/10/27 00:56:12;;;;;;;;;;;19.60;75.80;;;;;;4494896;31;19996;-70
2022/10/27 00:58:38;;;;;;;;;;;19.60;75.80;;;;;;4494672;31;20024;-69
2022/10/27 01:01:04;;;;;;;;;;;19.60;75.80;;;;;;4494330;31;19981;-70
2022/10/27 01:03:31;;;;;;;;;;;19.60;75.80;;;;;;4494272;31;19983;-70
2022/10/27 01:05:57;;;;;;;;;;;19.60;75.80;;;;;;4494188;31;20325;-70
2022/10/27 01:08:23;;;;;;;;;;;19.60;75.80;;;;;;4494517;31;20414;-69
2022/10/27 01:10:49;;;;;;;;;;;19.60;75.80;;;;;;4494439;31;20452;-69
2022/10/27 01:13:15;;;;;;;;;;;19.60;75.80;;;;;;4494728;31;20034;-70
2022/10/27 01:15:40;;;;;;;;;;;19.60;75.80;;;;;;4494733;31;20005;-70
2022/10/27 01:18:18;;;;;;;;;;;19.60;75.80;;;;;;4494549;31;19981;-70
2022/10/27 01:21:08;;;;;;;;;;;19.60;75.80;;;;;;4494457;31;20318;-70
2022/10/27 01:23:52;;;;;;;;;;;19.60;75.80;;;;;;4494684;31;19981;-70
2022/10/27 01:26:38;;;;;;;;;;;19.60;75.80;;;;;;4494155;31;20440;-70
2022/10/27 01:29:06;;;;;;;;;;;19.60;75.80;;;;;;4494317;31;19983;-70
2022/10/27 01:31:40;;;;;;;;;;;19.60;75.80;;;;;;4494126;31;19977;-70
2022/10/27 01:34:11;;;;;;;;;;;19.60;75.80;;;;;;4494151;31;19977;-70
2022/10/27 01:36:42;;;;;;;;;;;19.60;75.70;;;;;;4494091;31;20395;-69
2022/10/27 01:39:20;;;;;;;;;;;19.60;75.80;;;;;;4494032;31;19977;-70
2022/10/27 01:41:50;;;;;;;;;;;19.60;75.80;;;;;;4493719;31;19973;-70
2022/10/27 01:44:20;;;;;;;;;;;19.60;75.70;;;;;;4493956;31;19992;-70
2022/10/27 01:46:46;;;;;;;;;;;19.60;75.70;;;;;;4493822;31;20391;-70
2022/10/27 01:49:12;;;;;;;;;;;19.50;75.60;;;;;;4493731;31;19992;-70
2022/10/27 01:51:37;;;;;;;;;;;19.50;75.60;;;;;;4494007;31;19973;-70
2022/10/27 01:54:04;;;;;;;;;;;19.50;75.60;;;;;;4493532;31;19966;-70
2022/10/27 01:56:48;;;;;;;;;;;19.60;75.60;;;;;;4493386;31;20388;-70
2022/10/27 01:59:27;;;;;;;;;;;19.50;75.60;;;;;;4493455;31;19984;-70
2022/10/27 02:02:14;;;;;;;;;;;19.50;75.50;;;;;;4493896;31;19969;-70
2022/10/27 02:04:43;;;;;;;;;;;19.50;75.50;;;;;;4493741;31;20104;-70
2022/10/27 02:07:12;;;;;;;;;;;19.50;75.50;;;;;;4493258;31;19970;-69
2022/10/27 02:09:42;;;;;;;;;;;19.50;75.50;;;;;;4493554;31;20146;-70
2022/10/27 02:12:20;;;;;;;;;;;19.50;75.50;;;;;;4493500;31;19981;-70
2022/10/27 02:14:48;;;;;;;;;;;19.50;75.50;;;;;;4493650;31;20130;-70
2022/10/27 02:17:15;;;;;;;;;;;19.50;75.50;;;;;;4493108;31;19992;-70
2022/10/27 02:19:45;;;;;;;;;;;19.50;75.50;;;;;;4492994;31;20083;-69
2022/10/27 02:22:11;;;;;;;;;;;19.50;75.50;;;;;;4493348;31;20021;-70
2022/10/27 02:24:37;;;;;;;;;;;19.50;75.50;;;;;;4493868;31;19974;-70
2022/10/27 02:27:09;;;;;;;;;;;19.50;75.50;;;;;;4495301;31;20179;-70
2022/10/27 02:29:38;;;;;;;;;;;19.50;75.50;;;;;;4493489;31;20116;-70
2022/10/27 02:32:05;;;;;;;;;;;19.50;75.50;;;;;;4492997;31;19984;-69
2022/10/27 02:34:32;;;;;;;;;;;19.40;75.40;;;;;;4492932;31;20098;-70
2022/10/27 02:36:58;;;;;;;;;;;19.50;75.50;;;;;;4492896;31;19992;-70
2022/10/27 02:39:24;;;;;;;;;;;19.50;75.50;;;;;;4493277;31;20286;-70
2022/10/27 02:41:50;;;;;;;;;;;19.40;75.50;;;;;;4492843;31;19981;-70
2022/10/27 02:44:16;;;;;;;;;;;19.50;75.50;;;;;;4493110;31;20326;-70
2022/10/27 02:46:42;;;;;;;;;;;19.40;75.40;;;;;;4492973;31;20115;-69
2022/10/27 02:49:07;;;;;;;;;;;19.40;75.40;;;;;;4493012;31;19980;-70
2022/10/27 02:51:33;;;;;;;;;;;19.40;76.30;;;;;;4493065;31;19974;-70
2022/10/27 02:53:58;;;;;;;;;;;19.40;75.40;;;;;;4492988;31;20017;-70
2022/10/27 02:56:24;;;;;;;;;;;19.40;75.40;;;;;;4492893;31;20099;-69
2022/10/27 02:58:50;;;;;;;;;;;19.40;75.50;;;;;;4492922;31;20372;-70
2022/10/27 03:01:16;;;;;;;;;;;19.40;75.40;;;;;;4492840;31;19988;-70
2022/10/27 03:03:42;;;;;;;;;;;19.40;75.40;;;;;;4492590;31;19973;-70
2022/10/27 03:06:07;;;;;;;;;;;19.40;75.40;;;;;;4492246;31;19974;-70
2022/10/27 03:08:33;;;;;;;;;;;19.40;75.40;;;;;;4492240;31;19984;-69
2022/10/27 03:10:59;;;;;;;;;;;19.40;75.50;;;;;;4492805;31;20020;-70
2022/10/27 03:13:24;;;;;;;;;;;19.40;75.40;;;;;;4492741;31;19970;-70
2022/10/27 03:15:50;;;;;;;;;;;19.40;75.40;;;;;;4492717;31;20112;-70
2022/10/27 03:18:16;;;;;;;;;;;19.40;75.40;;;;;;4492468;31;19973;-70
2022/10/27 03:20:44;;;;;;;;;;;19.40;75.50;;;;;;4492535;31;19988;-70
2022/10/27 03:23:10;;;;;;;;;;;19.40;75.40;;;;;;4492874;31;19982;-69
2022/10/27 03:25:36;;;;;;;;;;;19.40;75.50;;;;;;4492623;31;19984;-69
2022/10/27 03:28:01;;;;;;;;;;;19.40;75.40;;;;;;4492280;32;20017;-69
2022/10/27 03:30:27;;;;;;;;;;;19.40;75.40;;;;;;4492849;32;20000;-69
2022/10/27 03:32:53;;;;;;;;;;;19.40;75.50;;;;;;4478714;32;19954;-70
2022/10/27 03:35:19;;;;;;;;;;;19.40;75.40;;;;;;4492293;32;20429;-70
2022/10/27 03:37:53;;;;;;;;;;;19.30;75.40;;;;;;4492749;32;19985;-70
2022/10/27 03:40:18;;;;;;;;;;;19.30;75.50;;;;;;4492533;32;20475;-69
2022/10/27 03:42:44;;;;;;;;;;;19.30;75.40;;;;;;4478360;32;19969;-69
2022/10/27 03:45:10;;;;;;;;;;;19.40;75.40;;;;;;4492472;32;20506;-70
2022/10/27 03:47:36;;;;;;;;;;;19.30;75.40;;;;;;4492027;32;19978;-70
2022/10/27 03:50:02;;;;;;;;;;;19.30;75.40;;;;;;4492425;32;19989;-70
2022/10/27 03:52:28;;;;;;;;;;;19.30;75.40;;;;;;4492225;32;19995;-70
2022/10/27 03:54:53;;;;;;;;;;;19.30;75.40;;;;;;4492155;32;19977;-69
2022/10/27 03:57:19;;;;;;;;;;;19.30;75.40;;;;;;4492434;32;19997;-70
2022/10/27 03:59:44;;;;;;;;;;;19.30;75.40;;;;;;4492495;32;19972;-70
2022/10/27 04:02:10;;;;;;;;;;;19.30;76.20;;;;;;4492142;32;20387;-70
2022/10/27 04:04:36;;;;;;;;;;;19.30;75.40;;;;;;4492093;32;20027;-69
2022/10/27 04:07:02;;;;;;;;;;;19.30;75.40;;;;;;4492341;32;20016;-70
2022/10/27 04:09:28;;;;;;;;;;;19.30;75.40;;;;;;4492360;32;20319;-70
2022/10/27 04:11:53;;;;;;;;;;;19.30;75.40;;;;;;4492609;32;19966;-70
2022/10/27 04:14:19;;;;;;;;;;;19.30;75.40;;;;;;4492480;32;20283;-70
2022/10/27 04:16:50;;;;;;;;;;;19.30;75.40;;;;;;4492271;32;20100;-69
2022/10/27 04:19:19;;;;;;;;;;;19.30;75.40;;;;;;4493956;31;19997;-70
2022/10/27 04:21:45;;;;;;;;;;;19.30;75.40;;;;;;4495180;31;20111;-70
2022/10/27 04:24:11;;;;;;;;;;;19.30;75.40;;;;;;4495412;31;20349;-70
2022/10/27 04:26:36;;;;;;;;;;;19.20;75.30;;;;;;4495061;31;20063;-70
2022/10/27 04:29:02;;;;;;;;;;;19.20;75.40;;;;;;4495085;31;20033;-70
2022/10/27 04:31:28;;;;;;;;;;;19.20;75.30;;;;;;4495082;31;19973;-70
2022/10/27 04:33:54;;;;;;;;;;;19.30;75.40;;;;;;4494745;31;20047;-70
2022/10/27 04:36:19;;;;;;;;;;;19.20;75.30;;;;;;4494993;31;19979;-70
2022/10/27 04:38:49;;;;;;;;;;;19.30;75.40;;;;;;4494700;31;19991;-70
2022/10/27 04:41:15;;;;;;;;;;;19.20;75.40;;;;;;4494924;31;20421;-70
2022/10/27 04:43:41;;;;;;;;;;;19.20;75.40;;;;;;4494964;31;20489;-70
2022/10/27 04:46:07;;;;;;;;;;;19.20;75.30;;;;;;4494776;31;19962;-70
2022/10/27 04:48:33;;;;;;;;;;;19.20;75.30;;;;;;4494933;31;20035;-69
2022/10/27 04:50:58;;;;;;;;;;;19.20;75.40;;;;;;4494774;31;20310;-70
2022/10/27 04:53:24;;;;;;;;;;;19.20;75.30;;;;;;4494460;31;20424;-70
2022/10/27 04:55:51;;;;;;;;;;;19.20;75.30;;;;;;4494706;31;20055;-69
2022/10/27 04:58:17;;;;;;;;;;;19.20;75.30;;;;;;4494877;31;20091;-70
2022/10/27 05:00:43;;;;;;;;;;;19.20;75.30;;;;;;4494600;31;19978;-69
2022/10/27 05:03:09;;;;;;;;;;;19.20;75.30;;;;;;4494717;31;19961;-70
2022/10/27 05:05:34;;;;;;;;;;;19.20;75.30;;;;;;4496531;31;20016;-70
2022/10/27 05:08:01;;;;;;;;;;;19.20;75.30;;;;;;4494670;31;20330;-70
2022/10/27 05:10:27;;;;;;;;;;;19.20;75.30;;;;;;4494581;31;19978;-70
2022/10/27 05:12:53;;;;;;;;;;;19.20;75.30;;;;;;4494462;31;19987;-70
2022/10/27 05:15:18;;;;;;;;;;;19.20;75.30;;;;;;4494410;31;19996;-70
2022/10/27 05:17:44;;;;;;;;;;;19.20;75.30;;;;;;4494249;31;19962;-70
2022/10/27 05:20:11;;;;;;;;;;;19.20;75.30;;;;;;4493940;31;20391;-70
2022/10/27 05:22:38;;;;;;;;;;;19.20;75.30;;;;;;4494385;31;20420;-70
2022/10/27 05:25:04;;;;;;;;;;;19.20;75.20;;;;;;4494040;31;19988;-69
2022/10/27 05:27:30;;;;;;;;;;;19.20;75.20;;;;;;4494177;31;19992;-70
2022/10/27 05:29:55;;;;;;;;;;;19.20;75.20;;;;;;4493227;31;19973;-70
2022/10/27 05:32:21;;;;;;;;;;;19.20;75.20;;;;;;4493909;31;20017;-70
2022/10/27 05:34:47;;;;;;;;;;;19.20;75.20;;;;;;4480032;31;19977;-69
2022/10/27 05:37:13;;;;;;;;;;;19.20;75.20;;;;;;4493819;31;19979;-70
2022/10/27 05:39:40;;;;;;;;;;;19.10;75.10;;;;;;4493805;31;19982;-69
2022/10/27 05:42:05;;;;;;;;;;;19.10;75.10;;;;;;4494181;31;19965;-70
2022/10/27 05:44:31;;;;;;;;;;;19.20;75.20;;;;;;4493731;31;20564;-70
2022/10/27 05:46:57;;;;;;;;;;;19.10;75.10;;;;;;4493827;31;19973;-72
2022/10/27 05:49:23;;;;;;;;;;;19.10;75.10;;;;;;4493568;31;19977;-70
2022/10/27 05:51:49;;;;;;;;;;;19.10;75.10;;;;;;4493818;31;20031;-69
2022/10/27 05:54:14;;;;;;;;;;;19.20;75.10;;;;;;4493928;31;20501;-70
2022/10/27 05:56:40;;;;;;;;;;;19.10;75.10;;;;;;4493671;31;19976;-70
2022/10/27 05:59:06;;;;;;;;;;;19.10;75.10;;;;;;4493517;31;19962;-70
2022/10/27 06:01:33;;;;;;;;;;;19.10;75.10;;;;;;4493886;31;20008;-70
2022/10/27 06:03:59;;;;;;;;;;;19.10;75.00;;;;;;4493624;31;20401;-70
2022/10/27 06:06:25;;;;;;;;;;;19.10;75.00;;;;;;4493737;31;20025;-70
2022/10/27 06:08:51;;;;;;;;;;;19.10;75.00;;;;;;4493714;31;20083;-70
2022/10/27 06:11:17;;;;;;;;;;;19.10;75.00;;;;;;4493304;31;20032;-70
2022/10/27 06:13:43;;;;;;;;;;;19.10;75.00;;;;;;4493766;31;20079;-70
2022/10/27 06:16:08;;;;;;;;;;;19.10;75.00;;;;;;4493521;31;20102;-70
2022/10/27 06:18:34;;;;;;;;;;;19.10;75.00;;;;;;4493109;31;20409;-70
2022/10/27 06:21:00;;;;;;;;;;;19.10;75.00;;;;;;4493431;31;19962;-70
2022/10/27 06:23:26;;;;;;;;;;;19.10;75.00;;;;;;4493369;31;19972;-70
2022/10/27 06:25:53;;;;;;;;;;;19.10;75.80;;;;;;4493207;31;20037;-71
2022/10/27 06:28:21;;;;;;;;;;;19.10;74.90;;;;;;4493269;31;19988;-70
2022/10/27 06:30:47;;;;;;;;;;;19.10;74.90;;;;;;4492978;31;20074;-70
2022/10/27 06:33:13;;;;;;;;;;;19.00;75.00;;;;;;4492969;31;20046;-71
2022/10/27 06:35:38;;;;;;;;;;;19.00;75.10;;;;;;4492921;31;20063;-70
2022/10/27 06:38:04;;;;;;;;;;;19.00;75.00;;;;;;4493164;31;19974;-70
2022/10/27 06:40:30;;;;;;;;;;;19.00;75.00;;;;;;4493131;31;19981;-70
2022/10/27 06:42:56;;;;;;;;;;;19.00;75.20;;;;;;4478996;31;20387;-70
2022/10/27 06:45:22;;;;;;;;;;;19.00;75.40;;;;;;4478578;31;20063;-70
2022/10/27 06:47:55;;;;;;;;;;;19.00;75.50;;;;;;4492976;31;20024;-70
2022/10/27 06:50:20;;;;;;;;;;;19.10;75.60;;;;;;4493105;31;19981;-71
2022/10/27 06:52:46;;;;;;;;;;;19.00;75.50;;;;;;4492892;31;20043;-70
2022/10/27 06:55:12;;;;;;;;;;;19.00;75.50;;;;;;4492856;31;20091;-70
2022/10/27 06:57:41;;;;;;;;;;;19.00;75.70;;;;;;4478456;31;20486;-70
2022/10/27 07:00:08;;;;;;;;;;;19.00;75.90;;;;;;4492549;31;19980;-70
2022/10/27 07:02:33;;;;;;;;;;;19.10;75.90;;;;;;4492597;31;19981;-70
2022/10/27 07:05:00;;;;;;;;;;;19.00;76.00;;;;;;4492574;31;19966;-70
2022/10/27 07:07:25;;;;;;;;;;;19.00;75.80;;;;;;4492434;31;19970;-71
2022/10/27 07:09:51;;;;;;;;;;;19.00;76.50;;;;;;4492782;31;19980;-71
2022/10/27 07:12:17;;;;;;;;;;;19.10;75.80;;;;;;4492481;31;19981;-71
2022/10/27 07:14:42;;;;;;;;;;;19.10;75.80;;;;;;4492785;31;19974;-71
2022/10/27 07:17:08;;;;;;;;;;;19.00;75.90;;;;;;4492434;31;20469;-70
2022/10/27 07:19:33;;;;;;;;;;;19.10;75.90;;;;;;4492384;31;19981;-70
2022/10/27 07:21:59;;;;;;;;;;;19.10;76.00;;;;;;4492652;31;19961;-71
2022/10/27 07:24:25;;;;;;;;;;;19.10;76.00;;;;;;4492396;31;20460;-71
2022/10/27 07:26:50;;;;;;;;;;;19.00;75.90;;;;;;4492375;31;19981;-70
2022/10/27 07:29:16;;;;;;;;;;;19.10;75.90;;;;;;4492567;32;20054;-70
2022/10/27 07:31:42;;;;;;;;;;;19.00;76.10;;;;;;4492575;32;20024;-70
2022/10/27 07:34:08;;;;;;;;;;;19.10;76.20;;;;;;4492587;32;19992;-70
2022/10/27 07:36:34;;;;;;;;;;;19.10;76.40;;;;;;4492546;32;19970;-70
2022/10/27 07:39:00;;;;;;;;;;;19.00;76.70;;;;;;4492888;32;19984;-70
2022/10/27 07:41:26;;;;;;;;;;;19.10;76.30;;;;;;4492349;32;19992;-70
2022/10/27 07:43:52;;;;;;;;;;;19.10;76.40;;;;;;4494172;32;20347;-70
2022/10/27 07:46:17;;;;;;;;;;;19.00;76.60;;;;;;4479517;32;20100;-70
2022/10/27 07:48:43;;;;;;;;;;;19.00;76.80;;;;;;4492246;32;20028;-71
2022/10/27 07:51:09;;;;;;;;;;;19.10;76.90;;;;;;4492218;32;19977;-70
2022/10/27 07:53:34;;;;;;;;;;;19.00;77.10;;;;;;4493417;31;19966;-71
2022/10/27 07:56:01;;;;;;;;;;;19.10;77.10;;;;;;4495634;31;20423;-71
2022/10/27 07:58:27;;;;;;;;;;;19.10;77.20;;;;;;4495752;31;20382;-70
2022/10/27 08:00:52;;;;;;;;;;;19.10;76.60;;;;;;4495498;31;20031;-71
2022/10/27 08:03:24;;;;;;;;;;;19.20;76.10;;;;;;4495277;31;19993;-70
2022/10/27 08:05:50;;;;;;;;;;;19.20;76.10;;;;;;4495487;31;19965;-66
2022/10/27 08:08:16;;;;;;;;;;;19.30;76.10;;;;;;4495264;31;19969;-70
2022/10/27 08:10:42;;;;;;;;;;;19.40;75.70;;;;;;4495395;31;20114;-70
2022/10/27 08:13:08;;;;;;;;;;;19.50;76.60;;;;;;4495615;31;19970;-70
2022/10/27 08:15:34;;;;;;;;;;;19.60;75.20;;;;;;4495296;31;20318;-70
2022/10/27 08:18:02;;;;;;;;;;;19.70;75.00;;;;;;4495198;31;20078;-70
2022/10/27 08:20:30;;;;;;;;;;;19.80;74.80;;;;;;4494797;31;19978;-70
2022/10/27 08:22:57;;;;;;;;;;;19.80;74.70;;;;;;4495336;31;20382;-70
2022/10/27 08:25:23;;;;;;;;;;;19.80;74.60;;;;;;4495077;31;20004;-70
2022/10/27 08:27:49;;;;;;;;;;;19.90;74.80;;;;;;4495020;31;19989;-69
2022/10/27 08:30:15;;;;;;;;;;;19.90;74.70;;;;;;4495127;31;20008;-71
2022/10/27 08:32:40;;;;;;;;;;;19.90;74.80;;;;;;4495033;31;19961;-71
2022/10/27 08:35:06;;;;;;;;;;;19.90;74.70;;;;;;4495053;31;20039;-71
2022/10/27 08:37:32;;;;;;;;;;;19.90;74.80;;;;;;4494981;31;20022;-71
2022/10/27 08:39:58;;;;;;;;;;;19.90;74.80;;;;;;4480605;31;19974;-71
2022/10/27 08:42:30;;;;;;;;;;;19.80;74.80;;;;;;4494862;31;19982;-68
2022/10/27 08:45:12;;;;;;;;;;;19.80;75.00;;;;;;4480393;31;19977;-71
2022/10/27 08:47:38;;;;;;;;;;;19.80;75.20;;;;;;4494938;31;20038;-70
2022/10/27 08:50:08;;;;;;;;;;;19.80;75.20;;;;;;4494795;31;20465;-71
2022/10/27 08:52:36;;;;;;;;;;;19.80;75.30;;;;;;4480529;31;19965;-71
2022/10/27 08:55:08;;;;;;;;;;;19.80;75.20;;;;;;4494580;31;20147;-71
2022/10/27 08:57:33;;;;;;;;;;;19.80;75.40;;;;;;4494967;31;20314;-72
2022/10/27 08:59:59;;;;;;;;;;;19.70;75.60;;;;;;4494689;31;19969;-70
2022/10/27 09:02:51;;;;;;;;;;;19.70;75.70;;;;;;4494816;31;19966;-71
2022/10/27 09:05:26;;;;;;;;;;;19.70;75.60;;;;;;4491025;31;19990;-69
2022/10/27 09:08:02;;;;;;;;;;;19.70;75.90;;;;;;4494540;31;20139;-70
2022/10/27 09:10:30;;;;;;;;;;;19.70;75.70;;;;;;4494557;31;20322;-66
2022/10/27 09:13:06;;;;;;;;;;;19.70;76.10;;;;;;4494521;31;19989;-67
2022/10/27 09:15:37;;;;;;;;;;;19.60;75.90;;;;;;4494517;31;20129;-68
2022/10/27 09:18:05;;;;;;;;;;;19.60;75.90;;;;;;4494873;31;20429;-68
2022/10/27 09:20:37;;;;;;;;;;;19.60;75.90;;;;;;4494218;31;19984;-67
2022/10/27 09:23:04;;;;;;;;;;;19.60;75.90;;;;;;4494288;31;20431;-67
2022/10/27 09:25:31;;;;;;;;;;;19.60;75.90;;;;;;4494227;31;19984;-68
2022/10/27 09:27:58;;;;;;;;;;;19.60;75.90;;;;;;4494147;31;20422;-68
2022/10/27 09:30:25;;;;;;;;;;;19.60;75.90;;;;;;4494198;31;19992;-68
2022/10/27 09:32:52;;;;;;;;;;;19.60;76.00;;;;;;4494225;31;20318;-67
2022/10/27 09:35:27;;;;;;;;;;;19.60;75.90;;;;;;4494113;31;20095;-69
2022/10/27 09:37:55;;;;;;;;;;;19.50;75.90;;;;;;4494367;31;20012;-69
2022/10/27 09:40:22;;;;;;;;;;;19.60;75.90;;;;;;4494282;31;19981;-68
2022/10/27 09:42:52;;;;;;;;;;;19.50;75.90;;;;;;4494018;31;19981;-70
2022/10/27 09:45:19;;;;;;;;;;;19.50;76.00;;;;;;4493991;31;19969;-71
2022/10/27 09:47:46;;;;;;;;;;;19.50;76.10;;;;;;4493776;31;19988;-67
2022/10/27 09:50:18;;;;;;;;;;;19.50;76.10;;;;;;4480002;31;20466;-71
2022/10/27 09:52:43;;;;;;;;;;;19.50;76.20;;;;;;4494209;31;20107;-70
2022/10/27 09:55:10;;;;;;;;;;;19.50;76.20;;;;;;4494071;31;20284;-70
2022/10/27 09:57:36;;;;;;;;;;;19.50;76.30;;;;;;4493758;31;19984;-70
2022/10/27 10:00:23;;;;;;;;;;;19.50;77.30;;;;;;4493743;31;20071;-70
2022/10/27 10:03:24;;;;;;;;;;;19.40;76.50;;;;;;4493796;31;19984;-70
2022/10/27 10:06:00;;;;;;;;;;;19.50;76.60;;;;;;4444592;32;20025;-70
2022/10/27 10:08:27;;;;;;;;;;;19.40;76.70;;;;;;4486543;31;19985;-70
2022/10/27 10:10:58;;;;;;;;;;;19.50;76.70;;;;;;4493561;31;20032;-70
2022/10/27 10:13:25;;;;;;;;;;;19.40;76.70;;;;;;4493269;31;19985;-70
2022/10/27 10:16:04;;;;;;;;;;;19.40;76.70;;;;;;4493508;31;19974;-72
2022/10/27 10:18:31;;;;;;;;;;;19.40;76.80;;;;;;4492821;31;20023;-69
2022/10/27 10:21:04;;;;;;;;;;;19.40;76.80;;;;;;4493853;31;20414;-69
2022/10/27 10:23:32;;;;;;;;;;;19.40;76.80;;;;;;4494965;31;19973;-68
2022/10/27 10:25:58;;;;;;;;;;;19.40;76.80;;;;;;4493700;31;19988;-70
2022/10/27 10:28:30;;;;;;;;;;;19.40;76.90;;;;;;4493543;31;20096;-70
2022/10/27 10:30:56;;;;;;;;;;;19.40;77.00;;;;;;4478890;31;19978;-69
2022/10/27 10:33:23;;;;;;;;;;;19.40;77.00;;;;;;4493146;31;19977;-70
2022/10/27 10:35:50;;;;;;;;;;;19.40;77.00;;;;;;4493243;31;19981;-69
2022/10/27 10:38:18;;;;;;;;;;;19.40;77.10;;;;;;4492993;31;19974;-70
2022/10/27 10:40:54;;;;;;;;;;;19.40;76.90;;;;;;4493105;31;20035;-70
2022/10/27 10:43:21;;;;;;;;;;;19.40;77.00;;;;;;4493518;31;19985;-70
2022/10/27 10:45:51;;;;;;;;;;;19.50;76.70;;;;;;4493073;31;19984;-70
2022/10/27 10:48:25;;;;;;;;;;;19.50;76.30;;;;;;4492985;31;19977;-70
2022/10/27 10:50:52;;;;;;;;;;;19.60;76.00;;;;;;4492932;31;19988;-71
2022/10/27 10:53:38;;;;;;;;;;;19.70;75.90;;;;;;4493174;31;19977;-70
2022/10/27 10:56:05;;;;;;;;;;;19.80;75.70;;;;;;4492518;31;20054;-70
2022/10/27 10:58:32;;;;;;;;;;;19.90;75.40;;;;;;4493013;31;19966;-70
2022/10/27 11:00:59;;;;;;;;;;;20.00;75.10;;;;;;4493103;31;19973;-70
2022/10/27 11:03:27;;;;;;;;;;;20.20;74.80;;;;;;4493001;31;20303;-70
2022/10/27 11:05:56;;;;;;;;;;;20.30;74.50;;;;;;4493048;31;20362;-71
2022/10/27 11:08:22;;;;;;;;;;;20.50;74.20;;;;;;4492633;31;20040;-70
2022/10/27 11:10:49;;;;;;;;;;;20.60;73.90;;;;;;4492778;31;19977;-70
2022/10/27 11:13:19;;;;;;;;;;;20.70;73.60;;;;;;4492296;31;19978;-70
2022/10/27 11:15:55;;;;;;;;;;;20.80;73.40;;;;;;4492647;31;20541;-70
2022/10/27 11:18:42;;;;;;;;;;;20.90;73.10;;;;;;4492124;31;20296;-70
2022/10/27 11:21:16;;;;;;;;;;;21.00;72.90;;;;;;4492430;31;20059;-70
2022/10/27 11:23:49;;;;;;;;;;;21.10;72.70;;;;;;4492681;31;20735;-70
2022/10/27 11:26:17;;;;;;;;;;;21.20;72.50;;;;;;4492772;31;19973;-70
2022/10/27 11:28:53;;;;;;;;;;;21.20;72.30;;;;;;4492137;31;20135;-71
2022/10/27 11:31:26;;;;;;;;;;;21.30;72.20;;;;;;4492533;31;20330;-71
2022/10/27 11:33:55;;;;;;;;;;;21.30;73.00;;;;;;4492498;32;20050;-71
2022/10/27 11:36:27;;;;;;;;;;;21.40;72.00;;;;;;4492644;32;20040;-70
2022/10/27 11:39:02;;;;;;;;;;;21.40;71.90;;;;;;4492648;32;20017;-70
2022/10/27 11:41:42;;;;;;;;;;;21.50;71.80;;;;;;4492576;32;20001;-71
2022/10/27 11:44:24;;;;;;;;;;;21.50;71.70;;;;;;4492537;32;19995;-72
2022/10/27 11:47:09;;;;;;;;;;;21.50;71.80;;;;;;4492478;32;19973;-67
2022/10/27 11:49:53;;;;;;;;;;;21.50;71.80;;;;;;4492402;32;19988;-71
2022/10/27 11:52:18;;;;;;;;;;;21.50;71.70;;;;;;4478139;32;19974;-71
2022/10/27 11:54:45;;;;;;;;;;;21.60;71.70;;;;;;4492206;32;19981;-71
2022/10/27 11:57:19;;;;;;;;;;;21.50;71.60;;;;;;4492695;32;20059;-72
2022/10/27 11:59:56;;;;;;;;;;;21.60;71.60;;;;;;4492670;32;19970;-71
2022/10/27 12:02:24;;;;;;;;;;;21.60;71.60;;;;;;4492481;32;19982;-71
2022/10/27 12:05:06;;;;;;;;;;;21.50;71.50;;;;;;4492484;32;19993;-73
2022/10/27 12:07:38;;;;;;;;;;;21.50;71.60;;;;;;4492259;32;19969;-71
2022/10/27 12:10:20;;;;;;;;;;;21.50;71.80;;;;;;4492075;32;19985;-72
2022/10/27 12:12:53;;;;;;;;;;;21.50;71.90;;;;;;4492473;32;19973;-72
2022/10/27 12:15:18;;;;;;;;;;;21.40;72.00;;;;;;4492507;32;20001;-71
2022/10/27 12:17:44;;;;;;;;;;;21.30;72.20;;;;;;4492173;32;19961;-72
2022/10/27 12:20:12;;;;;;;;;;;21.30;72.40;;;;;;4491671;32;20304;-71
2022/10/27 12:22:42;;;;;;;;;;;21.20;72.40;;;;;;4492079;32;19977;-72
2022/10/27 12:25:19;;;;;;;;;;;21.20;72.70;;;;;;4491944;32;19969;-72
2022/10/27 12:27:46;;;;;;;;;;;21.10;72.80;;;;;;4491959;32;20541;-71
2022/10/27 12:30:16;;;;;;;;;;;21.10;73.00;;;;;;4492494;32;19984;-71
2022/10/27 12:32:43;;;;;;;;;;;21.10;73.20;;;;;;4492177;32;19981;-71
2022/10/27 12:35:15;;;;;;;;;;;21.00;73.30;;;;;;4492126;32;20421;-70
2022/10/27 12:38:01;;;;;;;;;;;21.00;73.40;;;;;;4492315;32;19977;-72
2022/10/27 12:40:31;;;;;;;;;;;20.90;73.50;;;;;;4493390;31;19977;-72
2022/10/27 12:43:05;;;;;;;;;;;20.90;73.60;;;;;;4494961;31;20104;-73
2022/10/27 12:45:49;;;;;;;;;;;20.90;73.70;;;;;;4495020;31;19988;-73
2022/10/27 12:48:21;;;;;;;;;;;20.80;73.70;;;;;;4494576;31;20016;-72
2022/10/27 12:50:56;;;;;;;;;;;20.80;73.80;;;;;;4494532;31;19977;-70
2022/10/27 12:53:34;;;;;;;;;;;20.80;73.90;;;;;;4495025;31;20334;-73
2022/10/27 12:56:00;;;;;;;;;;;20.70;73.90;;;;;;4495094;31;20288;-71
2022/10/27 12:58:28;;;;;;;;;;;20.70;74.00;;;;;;4494835;31;19981;-73
2022/10/27 13:01:06;;;;;;;;;;;20.70;75.00;;;;;;4495097;31;20477;-71
2022/10/27 13:03:44;;;;;;;;;;;20.60;74.20;;;;;;4480681;31;19980;-70
2022/10/27 13:06:17;;;;;;;;;;;20.60;74.20;;;;;;4494999;31;20032;-72
2022/10/27 13:08:46;;;;;;;;;;;20.60;74.40;;;;;;4494328;31;20144;-71
2022/10/27 13:11:31;;;;;;;;;;;20.50;74.40;;;;;;4494245;31;19973;-71
2022/10/27 13:14:15;;;;;;;;;;;20.50;74.50;;;;;;4494591;31;20012;-72
2022/10/27 13:16:46;;;;;;;;;;;20.50;74.60;;;;;;4494750;31;20413;-72
2022/10/27 13:19:18;;;;;;;;;;;20.50;74.70;;;;;;4494157;31;20062;-72
2022/10/27 13:21:54;;;;;;;;;;;20.40;74.60;;;;;;4494067;31;19988;-71
2022/10/27 13:24:23;;;;;;;;;;;20.40;74.60;;;;;;4494221;31;19973;-72
2022/10/27 13:26:53;;;;;;;;;;;20.40;74.70;;;;;;4494192;31;20099;-73
2022/10/27 13:29:38;;;;;;;;;;;20.40;74.70;;;;;;4494670;31;19992;-73
2022/10/27 13:32:16;;;;;;;;;;;20.40;74.80;;;;;;4494258;31;19996;-71
2022/10/27 13:35:02;;;;;;;;;;;20.40;74.80;;;;;;4494238;31;19981;-71
2022/10/27 13:37:40;;;;;;;;;;;20.30;74.80;;;;;;4493739;31;20047;-72
2022/10/27 13:40:26;;;;;;;;;;;20.40;74.80;;;;;;4493884;31;19978;-71
2022/10/27 13:42:53;;;;;;;;;;;20.30;74.80;;;;;;4485825;31;19985;-71
2022/10/27 13:45:33;;;;;;;;;;;20.30;74.80;;;;;;4494031;31;19974;-72
2022/10/27 13:48:06;;;;;;;;;;;20.30;74.80;;;;;;4493597;31;19982;-71
2022/10/27 13:50:32;;;;;;;;;;;20.30;74.80;;;;;;4493642;31;20362;-72
2022/10/27 13:53:13;;;;;;;;;;;20.30;74.80;;;;;;4493760;31;20271;-71
2022/10/27 13:55:39;;;;;;;;;;;20.30;74.80;;;;;;4493880;31;20024;-72
2022/10/27 13:58:17;;;;;;;;;;;20.20;74.80;;;;;;4493802;31;19977;-70
2022/10/27 14:00:52;;;;;;;;;;;20.20;74.80;;;;;;4493795;31;20009;-71
2022/10/27 14:03:29;;;;;;;;;;;20.20;74.90;;;;;;4493706;31;19977;-71
2022/10/27 14:05:54;;;;;;;;;;;20.20;75.00;;;;;;4494035;31;19977;-71
2022/10/27 14:08:23;;;;;;;;;;;20.20;75.40;;;;;;4493768;31;19973;-72
2022/10/27 14:10:50;;;;;;;;;;;20.20;75.10;;;;;;4493363;31;20044;-72
2022/10/27 14:13:29;;;;;;;;;;;20.20;75.20;;;;;;4493486;31;20035;-71
2022/10/27 14:15:56;;;;;;;;;;;20.20;75.20;;;;;;4493529;31;20050;-73
2022/10/27 14:18:27;;;;;;;;;;;20.20;76.10;;;;;;4493134;31;19978;-71
2022/10/27 14:20:53;;;;;;;;;;;20.20;75.30;;;;;;4493581;31;19987;-72
2022/10/27 14:23:19;;;;;;;;;;;20.10;75.20;;;;;;4493670;31;19981;-73
2022/10/27 14:25:45;;;;;;;;;;;20.20;75.30;;;;;;4493059;31;20417;-68
2022/10/27 14:28:15;;;;;;;;;;;20.20;75.30;;;;;;4493237;31;19966;-70